Time;durP1;ratioP1;P1;durP2;ratioP2;P2;SDS_P1;SDS_P2;PMS_P1;PMS_P2;Temp;Humidity;BMP_temperature;BMP_pressure;BME280_temperature;BME280_humidity;BME280_pressure;Samples;Min_cycle;Max_cycle;Signal;HPM_P1;HPM_P2
2022/09/04 00:01:18;;;;;;;;;;;21.30;65.90;;;;;;5141209;27;20107;-47
2022/09/04 00:03:49;;;;;;;;;;;21.30;62.60;;;;;;5140957;27;19927;-48
2022/09/04 00:06:16;;;;;;;;;;;20.50;58.90;;;;;;5146541;27;20285;-46
2022/09/04 00:08:51;;;;;;;;;;;20.20;56.90;;;;;;5140964;27;19923;-46
2022/09/04 00:11:36;;;;;;;;;;;20.00;55.70;;;;;;5140123;27;20023;-51
2022/09/04 00:14:06;;;;;;;;;;;19.90;56.10;;;;;;5145966;27;20001;-49
2022/09/04 00:16:43;;;;;;;;;;;20.40;64.10;;;;;;5125821;27;20037;-49
2022/09/04 00:19:12;;;;;;;;;;;21.00;66.00;;;;;;5125954;27;19923;-49
2022/09/04 00:21:42;;;;;;;;;;;21.50;64.10;;;;;;5131628;27;19929;-50
2022/09/04 00:24:15;;;;;;;;;;;20.80;60.30;;;;;;5126290;27;19923;-46
2022/09/04 00:26:51;;;;;;;;;;;20.30;57.90;;;;;;5125893;27;19935;-47
2022/09/04 00:29:20;;;;;;;;;;;19.90;56.30;;;;;;5149767;27;19929;-51
2022/09/04 00:31:47;;;;;;;;;;;20.00;54.60;;;;;;5139669;27;19933;-45
2022/09/04 00:34:13;;;;;;;;;;;19.80;56.50;;;;;;5143286;27;19923;-47
2022/09/04 00:36:39;;;;;;;;;;;20.30;63.70;;;;;;5149466;27;20003;-47
2022/09/04 00:39:10;;;;;;;;;;;21.00;65.80;;;;;;5125657;27;19933;-48
2022/09/04 00:41:54;;;;;;;;;;;21.50;64.20;;;;;;5149500;27;19934;-47
2022/09/04 00:44:31;;;;;;;;;;;20.70;60.80;;;;;;5149412;27;20277;-47
2022/09/04 00:47:16;;;;;;;;;;;20.30;57.60;;;;;;5124683;27;19927;-49
2022/09/04 00:49:51;;;;;;;;;;;20.20;55.80;;;;;;5139996;27;20135;-48
2022/09/04 00:52:35;;;;;;;;;;;19.90;54.90;;;;;;5129535;27;19949;-48
2022/09/04 00:55:14;;;;;;;;;;;19.90;60.10;;;;;;5143743;27;19945;-46
2022/09/04 00:57:56;;;;;;;;;;;20.60;65.40;;;;;;5124183;27;19931;-47
2022/09/04 01:00:22;;;;;;;;;;;21.30;65.60;;;;;;5131230;27;20014;-46
2022/09/04 01:03:11;;;;;;;;;;;21.20;61.80;;;;;;5143408;27;19923;-47
2022/09/04 01:05:52;;;;;;;;;;;20.50;58.80;;;;;;5143788;27;19929;-46
2022/09/04 01:08:39;;;;;;;;;;;20.20;56.30;;;;;;5144509;27;19923;-48
2022/09/04 01:11:23;;;;;;;;;;;19.90;55.20;;;;;;5143132;27;19927;-45
2022/09/04 01:13:49;;;;;;;;;;;19.80;54.40;;;;;;5143474;27;19923;-47
2022/09/04 01:16:26;;;;;;;;;;;19.90;57.70;;;;;;5148931;27;19930;-53
2022/09/04 01:19:09;;;;;;;;;;;20.50;63.90;;;;;;5143663;27;20005;-49
2022/09/04 01:21:38;;;;;;;;;;;21.10;65.60;;;;;;5125076;27;19923;-47
2022/09/04 01:24:16;;;;;;;;;;;21.60;63.50;;;;;;5148502;27;20293;-47
2022/09/04 01:26:44;;;;;;;;;;;20.80;60.00;;;;;;5141306;27;19923;-50
2022/09/04 01:29:27;;;;;;;;;;;20.30;57.60;;;;;;5142737;27;19923;-46
2022/09/04 01:32:13;;;;;;;;;;;20.20;55.60;;;;;;5148654;27;19929;-45
2022/09/04 01:34:42;;;;;;;;;;;19.90;54.50;;;;;;5130249;27;20293;-46
2022/09/04 01:37:27;;;;;;;;;;;19.90;53.90;;;;;;5124564;27;19930;-47
2022/09/04 01:40:19;;;;;;;;;;;19.80;55.10;;;;;;5143753;27;20034;-55
2022/09/04 01:43:05;;;;;;;;;;;20.40;62.50;;;;;;5143414;27;20026;-49
2022/09/04 01:45:33;;;;;;;;;;;21.00;65.10;;;;;;5120974;27;19931;-48
2022/09/04 01:48:01;;;;;;;;;;;21.60;63.40;;;;;;5142453;27;19923;-47
2022/09/04 01:50:27;;;;;;;;;;;20.70;60.00;;;;;;5129715;27;19946;-46
2022/09/04 01:53:07;;;;;;;;;;;20.40;57.40;;;;;;5142872;27;19923;-47
2022/09/04 01:55:40;;;;;;;;;;;20.20;56.00;;;;;;5142948;27;19923;-46
2022/09/04 01:58:17;;;;;;;;;;;20.00;54.30;;;;;;5148195;27;19923;-46
2022/09/04 02:00:47;;;;;;;;;;;20.00;55.70;;;;;;5142877;27;20435;-48
2022/09/04 02:03:16;;;;;;;;;;;20.50;63.30;;;;;;5138544;27;19923;-49
2022/09/04 02:05:54;;;;;;;;;;;21.00;65.20;;;;;;5147195;27;19930;-47
2022/09/04 02:08:34;;;;;;;;;;;21.50;63.30;;;;;;5142649;27;19927;-45
2022/09/04 02:11:16;;;;;;;;;;;20.80;60.00;;;;;;5142642;27;19929;-47
2022/09/04 02:14:03;;;;;;;;;;;20.30;57.00;;;;;;5144173;27;19923;-48
2022/09/04 02:16:33;;;;;;;;;;;19.90;55.90;;;;;;5142406;27;19927;-46
2022/09/04 02:19:18;;;;;;;;;;;19.70;55.20;;;;;;5142396;27;20079;-47
2022/09/04 02:21:43;;;;;;;;;;;20.20;63.00;;;;;;5143550;27;19923;-47
2022/09/04 02:24:27;;;;;;;;;;;21.00;65.20;;;;;;5141099;27;20278;-48
2022/09/04 02:27:04;;;;;;;;;;;21.50;64.00;;;;;;5123742;27;19931;-47
2022/09/04 02:29:47;;;;;;;;;;;20.70;59.50;;;;;;5127471;27;19933;-47
2022/09/04 02:32:17;;;;;;;;;;;20.10;57.40;;;;;;5142150;27;19933;-48
2022/09/04 02:34:46;;;;;;;;;;;20.10;55.40;;;;;;5141940;27;19976;-46
2022/09/04 02:37:14;;;;;;;;;;;19.80;54.70;;;;;;5147135;27;19923;-48
2022/09/04 02:39:59;;;;;;;;;;;19.80;57.00;;;;;;5138717;27;19971;-52
2022/09/04 02:42:54;;;;;;;;;;;20.30;63.70;;;;;;5141308;27;19922;-49
2022/09/04 02:45:26;;;;;;;;;;;21.00;65.20;;;;;;5055836;27;19929;-48
2022/09/04 02:48:00;;;;;;;;;;;21.50;62.80;;;;;;5142076;27;19951;-46
2022/09/04 02:50:46;;;;;;;;;;;20.60;59.80;;;;;;5141955;27;19923;-46
2022/09/04 02:53:16;;;;;;;;;;;20.20;57.00;;;;;;5147499;27;19924;-47
2022/09/04 02:56:08;;;;;;;;;;;19.80;55.60;;;;;;5142912;27;19927;-48
2022/09/04 02:58:52;;;;;;;;;;;19.70;54.70;;;;;;5137460;27;20351;-46
2022/09/04 03:01:23;;;;;;;;;;;20.30;61.70;;;;;;5141317;27;20478;-46
2022/09/04 03:03:52;;;;;;;;;;;20.90;65.00;;;;;;5126986;27;19927;-48
2022/09/04 03:06:21;;;;;;;;;;;21.60;64.30;;;;;;5141957;27;19949;-49
2022/09/04 03:08:52;;;;;;;;;;;20.90;60.60;;;;;;5127075;27;19976;-54
2022/09/04 03:11:22;;;;;;;;;;;20.30;57.80;;;;;;5127362;27;20362;-47
2022/09/04 03:14:23;;;;;;;;;;;20.10;56.10;;;;;;5123121;27;20068;-48
2022/09/04 03:17:05;;;;;;;;;;;19.90;54.70;;;;;;5081883;27;20751;-48
2022/09/04 03:19:48;;;;;;;;;;;19.90;57.60;;;;;;5127626;27;20352;-51
2022/09/04 03:22:20;;;;;;;;;;;20.50;64.00;;;;;;5122861;27;20017;-48
2022/09/04 03:25:05;;;;;;;;;;;21.20;65.00;;;;;;5141463;27;19954;-46
2022/09/04 03:27:31;;;;;;;;;;;21.30;62.10;;;;;;5146883;27;20708;-46
2022/09/04 03:30:00;;;;;;;;;;;20.40;59.00;;;;;;5141272;27;20038;-45
2022/09/04 03:32:37;;;;;;;;;;;20.20;56.70;;;;;;5141477;27;20314;-48
2022/09/04 03:35:09;;;;;;;;;;;20.00;55.10;;;;;;5142521;27;19930;-47
2022/09/04 03:37:38;;;;;;;;;;;19.80;54.50;;;;;;5121929;27;19927;-48
2022/09/04 03:40:04;;;;;;;;;;;19.80;56.10;;;;;;5141068;27;19923;-46
2022/09/04 03:42:49;;;;;;;;;;;20.30;63.20;;;;;;5146608;27;19938;-46
2022/09/04 03:45:36;;;;;;;;;;;21.00;64.70;;;;;;5122646;27;19927;-50
2022/09/04 03:48:16;;;;;;;;;;;21.70;63.40;;;;;;5142441;27;19926;-49
2022/09/04 03:50:55;;;;;;;;;;;20.70;59.60;;;;;;5131756;27;20017;-47
2022/09/04 03:53:26;;;;;;;;;;;20.10;57.20;;;;;;5122281;27;20302;-52
2022/09/04 03:56:11;;;;;;;;;;;20.00;55.50;;;;;;5143805;27;20003;-45
2022/09/04 03:58:55;;;;;;;;;;;19.80;54.50;;;;;;5150280;27;20285;-48
2022/09/04 04:01:24;;;;;;;;;;;20.00;59.20;;;;;;5144767;27;19923;-48
2022/09/04 04:03:50;;;;;;;;;;;20.70;64.10;;;;;;5144707;27;19929;-46
2022/09/04 04:06:23;;;;;;;;;;;21.20;64.60;;;;;;5150124;27;19923;-47
2022/09/04 04:08:50;;;;;;;;;;;21.20;61.60;;;;;;5144535;27;20019;-45
2022/09/04 04:11:19;;;;;;;;;;;20.40;58.60;;;;;;5141478;27;19933;-47
2022/09/04 04:13:51;;;;;;;;;;;20.10;56.60;;;;;;5129542;27;20019;-46
2022/09/04 04:16:21;;;;;;;;;;;20.00;55.10;;;;;;5144295;27;19945;-45
2022/09/04 04:19:09;;;;;;;;;;;19.80;54.10;;;;;;5126036;27;20616;-48
2022/09/04 04:21:35;;;;;;;;;;;20.00;59.70;;;;;;5131936;27;19929;-45
2022/09/04 04:24:04;;;;;;;;;;;20.60;64.10;;;;;;5144130;27;19927;-46
2022/09/04 04:26:39;;;;;;;;;;;21.20;64.70;;;;;;5144505;27;20142;-47
2022/09/04 04:29:09;;;;;;;;;;;21.70;63.30;;;;;;5147222;27;20309;-55
2022/09/04 04:32:16;;;;;;;;;;;21.40;64.70;;;;;;5141998;27;19930;-53
2022/09/04 04:35:02;;;;;;;;;;;21.30;65.20;;;;;;5108691;27;20370;-52
2022/09/04 04:37:30;;;;;;;;;;;21.30;65.30;;;;;;5150005;27;19927;-50
2022/09/04 04:40:01;;;;;;;;;;;21.30;65.20;;;;;;5144366;27;19927;-53
2022/09/04 04:42:33;;;;;;;;;;;21.30;65.30;;;;;;5122190;27;19938;-50
2022/09/04 04:48:18;;;;;;;;;;;21.40;64.80;;;;;;5145098;27;20385;-54
2022/09/04 04:50:49;;;;;;;;;;;21.30;64.90;;;;;;5142717;27;20017;-52
2022/09/04 04:53:19;;;;;;;;;;;21.30;64.90;;;;;;5148864;27;20305;-54
2022/09/04 04:55:55;;;;;;;;;;;21.50;64.60;;;;;;5126573;27;19958;-51
2022/09/04 04:58:40;;;;;;;;;;;21.40;64.70;;;;;;5124885;27;19927;-52
2022/09/04 05:01:16;;;;;;;;;;;21.40;64.70;;;;;;5145939;27;20139;-53
2022/09/04 05:03:48;;;;;;;;;;;21.40;64.50;;;;;;5131043;27;19934;-53
2022/09/04 05:06:35;;;;;;;;;;;21.40;64.40;;;;;;5140917;27;20017;-53
2022/09/04 05:09:16;;;;;;;;;;;21.30;64.90;;;;;;5123463;27;20275;-51
2022/09/04 05:11:50;;;;;;;;;;;21.60;63.70;;;;;;5148984;27;20331;-54
2022/09/04 05:14:21;;;;;;;;;;;21.50;63.60;;;;;;5125149;27;19927;-51
2022/09/04 05:16:54;;;;;;;;;;;21.60;63.20;;;;;;5125437;27;19927;-52
2022/09/04 05:19:26;;;;;;;;;;;21.50;63.60;;;;;;5130538;27;19923;-50
2022/09/04 05:22:11;;;;;;;;;;;21.50;63.20;;;;;;5125015;27;19927;-53
2022/09/04 05:24:39;;;;;;;;;;;21.50;63.30;;;;;;5140224;27;20072;-52
2022/09/04 05:27:09;;;;;;;;;;;21.60;63.20;;;;;;5126750;27;19927;-53
2022/09/04 05:29:38;;;;;;;;;;;21.70;62.70;;;;;;5143104;27;19946;-50
2022/09/04 05:32:16;;;;;;;;;;;21.50;63.30;;;;;;5145447;27;19932;-55
2022/09/04 05:35:01;;;;;;;;;;;21.70;63.00;;;;;;5148753;27;20073;-49
2022/09/04 05:37:30;;;;;;;;;;;21.70;62.90;;;;;;5124342;27;19927;-53
2022/09/04 05:40:18;;;;;;;;;;;21.60;63.30;;;;;;5123977;27;19934;-51
2022/09/04 05:42:53;;;;;;;;;;;21.80;62.90;;;;;;5127153;27;20443;-52
2022/09/04 05:45:23;;;;;;;;;;;21.80;63.00;;;;;;5140927;27;19930;-51
2022/09/04 05:47:51;;;;;;;;;;;21.70;63.40;;;;;;5124435;27;20417;-54
2022/09/04 05:50:25;;;;;;;;;;;21.80;62.60;;;;;;5148573;27;19933;-51
2022/09/04 05:53:09;;;;;;;;;;;21.80;62.80;;;;;;5143042;27;19933;-51
2022/09/04 05:55:54;;;;;;;;;;;21.80;62.50;;;;;;5142977;27;20569;-52
2022/09/04 05:58:30;;;;;;;;;;;21.80;62.30;;;;;;5148538;27;19971;-52
2022/09/04 06:00:59;;;;;;;;;;;21.60;62.50;;;;;;5120833;27;20390;-53
2022/09/04 06:03:43;;;;;;;;;;;21.30;60.80;;;;;;5140306;27;20613;-56
2022/09/04 06:06:12;;;;;;;;;;;21.40;60.80;;;;;;5147980;27;20282;-56
2022/09/04 06:08:47;;;;;;;;;;;21.60;61.40;;;;;;5142573;27;20384;-54
2022/09/04 06:11:25;;;;;;;;;;;21.70;61.90;;;;;;5141449;27;20037;-58
2022/09/04 06:14:09;;;;;;;;;;;21.60;61.90;;;;;;5148405;27;20256;-56
2022/09/04 06:16:42;;;;;;;;;;;21.70;61.40;;;;;;5142833;27;19930;-57
2022/09/04 06:19:11;;;;;;;;;;;21.70;61.10;;;;;;5122053;27;19927;-56
2022/09/04 06:21:43;;;;;;;;;;;21.80;60.80;;;;;;5145312;27;19930;-57
2022/09/04 06:24:23;;;;;;;;;;;21.80;60.40;;;;;;5142122;27;19931;-58
2022/09/04 06:27:07;;;;;;;;;;;21.80;60.20;;;;;;5142476;27;19923;-57
2022/09/04 06:29:34;;;;;;;;;;;21.80;60.00;;;;;;5147895;27;20250;-58
2022/09/04 06:32:18;;;;;;;;;;;21.90;59.80;;;;;;5142470;27;19974;-59
2022/09/04 06:34:50;;;;;;;;;;;21.90;59.80;;;;;;5142335;27;19923;-59
2022/09/04 06:37:37;;;;;;;;;;;21.90;59.70;;;;;;5146337;27;19923;-58
2022/09/04 06:40:06;;;;;;;;;;;21.90;59.60;;;;;;5121570;27;19923;-56
2022/09/04 06:42:51;;;;;;;;;;;21.80;59.70;;;;;;5142045;27;19953;-56
2022/09/04 06:45:20;;;;;;;;;;;21.90;59.40;;;;;;5147522;27;19923;-56
2022/09/04 06:47:58;;;;;;;;;;;22.00;59.40;;;;;;5142768;27;19971;-58
2022/09/04 06:50:33;;;;;;;;;;;22.00;59.40;;;;;;5125625;27;19927;-54
2022/09/04 06:53:02;;;;;;;;;;;22.00;59.20;;;;;;5147553;27;19991;-48
2022/09/04 06:55:37;;;;;;;;;;;22.00;58.80;;;;;;5141276;27;20384;-51
2022/09/04 06:58:10;;;;;;;;;;;21.90;59.50;;;;;;5138372;27;19949;-45
2022/09/04 07:00:58;;;;;;;;;;;20.70;60.00;;;;;;5128327;27;20025;-47
2022/09/04 07:03:27;;;;;;;;;;;20.00;60.30;;;;;;5142433;27;19975;-46
2022/09/04 07:05:57;;;;;;;;;;;19.90;61.70;;;;;;5123516;27;20021;-45
2022/09/04 07:08:41;;;;;;;;;;;20.80;68.10;;;;;;5128623;27;19930;-47
2022/09/04 07:11:12;;;;;;;;;;;21.30;70.70;;;;;;5142175;27;19923;-46
2022/09/04 07:13:38;;;;;;;;;;;21.00;66.10;;;;;;5123624;27;20325;-48
2022/09/04 07:16:04;;;;;;;;;;;20.50;63.90;;;;;;5142882;27;19927;-48
2022/09/04 07:18:36;;;;;;;;;;;20.60;61.70;;;;;;5141277;27;20013;-46
2022/09/04 07:21:10;;;;;;;;;;;20.40;61.20;;;;;;5122920;27;20315;-47
2022/09/04 07:23:43;;;;;;;;;;;20.40;60.80;;;;;;5128364;27;21964;-47
2022/09/04 07:26:13;;;;;;;;;;;20.50;60.30;;;;;;5141492;27;19934;-49
2022/09/04 07:28:49;;;;;;;;;;;20.50;60.00;;;;;;5141455;27;20009;-46
2022/09/04 07:31:21;;;;;;;;;;;20.50;60.00;;;;;;5128604;27;19927;-45
2022/09/04 07:33:50;;;;;;;;;;;20.60;59.30;;;;;;5137555;27;19927;-46
2022/09/04 07:36:17;;;;;;;;;;;20.50;59.70;;;;;;5121700;27;19923;-46
2022/09/04 07:38:57;;;;;;;;;;;20.40;59.90;;;;;;5128311;27;20654;-45
2022/09/04 07:41:43;;;;;;;;;;;20.30;59.90;;;;;;5122843;27;20006;-45
2022/09/04 07:44:13;;;;;;;;;;;20.40;59.70;;;;;;5141488;27;20434;-45
2022/09/04 07:46:58;;;;;;;;;;;20.40;59.70;;;;;;5128311;27;20034;-48
2022/09/04 07:49:34;;;;;;;;;;;20.30;59.70;;;;;;5122961;27;19967;-47
2022/09/04 07:52:07;;;;;;;;;;;20.40;59.70;;;;;;5137680;27;19923;-54
2022/09/04 07:54:39;;;;;;;;;;;20.30;59.70;;;;;;5145236;27;19950;-45
2022/09/04 07:57:15;;;;;;;;;;;20.30;59.90;;;;;;5122560;27;19962;-46
2022/09/04 07:59:41;;;;;;;;;;;20.40;59.60;;;;;;5141117;27;19934;-46
2022/09/04 08:02:19;;;;;;;;;;;20.30;60.20;;;;;;5146416;27;19927;-48
2022/09/04 08:04:57;;;;;;;;;;;20.40;59.70;;;;;;5140929;27;19927;-45
2022/09/04 08:07:47;;;;;;;;;;;20.30;59.80;;;;;;5141117;27;20110;-48
2022/09/04 08:10:18;;;;;;;;;;;20.30;59.70;;;;;;5143087;27;20363;-47
2022/09/04 08:12:50;;;;;;;;;;;20.40;59.40;;;;;;5120880;27;19945;-45
2022/09/04 08:15:18;;;;;;;;;;;20.40;59.50;;;;;;5140807;27;20066;-46
2022/09/04 08:17:56;;;;;;;;;;;20.30;59.90;;;;;;5146315;27;20271;-45
2022/09/04 08:20:30;;;;;;;;;;;20.30;60.00;;;;;;5140969;27;20520;-46
2022/09/04 08:23:00;;;;;;;;;;;20.30;60.20;;;;;;5122038;27;19979;-46
2022/09/04 08:25:47;;;;;;;;;;;20.30;59.70;;;;;;5126959;27;20288;-46
2022/09/04 08:28:16;;;;;;;;;;;20.30;60.20;;;;;;5119931;27;20034;-47
2022/09/04 08:30:47;;;;;;;;;;;20.40;60.00;;;;;;5120573;27;19930;-46
2022/09/04 08:33:33;;;;;;;;;;;20.30;60.20;;;;;;5146098;27;20017;-48
2022/09/04 08:35:59;;;;;;;;;;;20.30;60.20;;;;;;5091646;27;20010;-46
2022/09/04 08:38:44;;;;;;;;;;;20.30;60.00;;;;;;5143960;27;20318;-46
2022/09/04 08:41:20;;;;;;;;;;;20.30;60.30;;;;;;5149436;27;19923;-49
2022/09/04 08:44:04;;;;;;;;;;;20.40;60.20;;;;;;5125543;27;19923;-46
2022/09/04 08:46:51;;;;;;;;;;;20.30;60.30;;;;;;5141276;27;20634;-45
2022/09/04 08:49:23;;;;;;;;;;;20.40;60.40;;;;;;5147317;27;20420;-44
2022/09/04 08:51:55;;;;;;;;;;;20.30;60.10;;;;;;5126468;27;20382;-47
2022/09/04 08:54:30;;;;;;;;;;;20.40;60.00;;;;;;5123645;27;20052;-48
2022/09/04 08:57:15;;;;;;;;;;;20.30;60.40;;;;;;5149214;27;19923;-46
2022/09/04 08:59:47;;;;;;;;;;;20.40;60.30;;;;;;5148234;27;19923;-46
2022/09/04 09:02:25;;;;;;;;;;;20.50;60.10;;;;;;5143875;27;20364;-47
2022/09/04 09:04:58;;;;;;;;;;;20.50;60.20;;;;;;5127155;27;20213;-51
2022/09/04 09:07:43;;;;;;;;;;;20.30;60.30;;;;;;5125323;27;20014;-46
2022/09/04 09:10:24;;;;;;;;;;;20.40;60.20;;;;;;5143309;27;19978;-45
2022/09/04 09:13:09;;;;;;;;;;;20.30;60.60;;;;;;5122950;27;20378;-45
2022/09/04 09:15:44;;;;;;;;;;;20.40;60.60;;;;;;5149049;27;19923;-46
2022/09/04 09:18:30;;;;;;;;;;;20.40;60.60;;;;;;5143594;27;19923;-46
2022/09/04 09:21:06;;;;;;;;;;;20.60;59.90;;;;;;5143503;27;20272;-46
2022/09/04 09:23:40;;;;;;;;;;;20.50;60.10;;;;;;5145555;27;20363;-47
2022/09/04 09:26:28;;;;;;;;;;;20.60;59.70;;;;;;5123156;27;20452;-47
2022/09/04 09:29:13;;;;;;;;;;;20.70;59.40;;;;;;5143252;27;19949;-45
2022/09/04 09:31:50;;;;;;;;;;;20.50;59.50;;;;;;5148781;27;20317;-45
2022/09/04 09:34:36;;;;;;;;;;;20.30;60.10;;;;;;5124734;27;19973;-45
2022/09/04 09:37:18;;;;;;;;;;;20.40;59.30;;;;;;5143105;27;20050;-46
2022/09/04 09:40:03;;;;;;;;;;;20.50;59.00;;;;;;5146951;27;20010;-53
2022/09/04 09:42:38;;;;;;;;;;;20.60;58.10;;;;;;5144253;27;19987;-48
2022/09/04 09:45:16;;;;;;;;;;;20.30;58.60;;;;;;5141807;27;19923;-47
2022/09/04 09:48:01;;;;;;;;;;;20.30;58.80;;;;;;5142992;27;20289;-44
2022/09/04 09:50:37;;;;;;;;;;;20.40;58.80;;;;;;5148447;27;20382;-45
2022/09/04 09:53:12;;;;;;;;;;;20.20;59.50;;;;;;5123529;27;20194;-46
2022/09/04 09:55:43;;;;;;;;;;;20.30;59.40;;;;;;5124375;27;19930;-44
2022/09/04 09:58:22;;;;;;;;;;;20.30;59.60;;;;;;5148307;27;19972;-45
2022/09/04 10:00:58;;;;;;;;;;;20.30;59.90;;;;;;5138854;27;20390;-46
2022/09/04 10:03:43;;;;;;;;;;;20.30;59.80;;;;;;5141716;27;19934;-50
2022/09/04 10:06:12;;;;;;;;;;;20.30;59.40;;;;;;5148043;27;19949;-45
2022/09/04 10:08:47;;;;;;;;;;;20.40;59.60;;;;;;5142539;27;19927;-45
2022/09/04 10:11:31;;;;;;;;;;;20.40;59.70;;;;;;5142772;27;19933;-46
2022/09/04 10:14:04;;;;;;;;;;;20.50;59.80;;;;;;5148134;27;19980;-46
2022/09/04 10:16:49;;;;;;;;;;;20.40;59.60;;;;;;5122543;27;20014;-45
2022/09/04 10:19:34;;;;;;;;;;;20.40;59.30;;;;;;5138230;27;19923;-47
2022/09/04 10:22:19;;;;;;;;;;;20.40;58.80;;;;;;5128813;27;19923;-44
2022/09/04 10:25:12;;;;;;;;;;;20.40;58.20;;;;;;5144418;27;19924;-46
2022/09/04 10:27:51;;;;;;;;;;;20.20;58.40;;;;;;5138019;27;19951;-46
2022/09/04 10:30:20;;;;;;;;;;;20.40;57.70;;;;;;5124028;27;19950;-44
2022/09/04 10:32:50;;;;;;;;;;;20.30;58.00;;;;;;5147942;27;20072;-46
2022/09/04 10:35:34;;;;;;;;;;;20.40;57.90;;;;;;5142073;27;19923;-44
2022/09/04 10:38:00;;;;;;;;;;;20.30;58.20;;;;;;5137753;27;19987;-46
2022/09/04 10:40:34;;;;;;;;;;;20.40;58.30;;;;;;5146336;27;21285;-45
2022/09/04 10:43:00;;;;;;;;;;;20.30;59.00;;;;;;5142162;27;20023;-46
2022/09/04 10:45:31;;;;;;;;;;;20.40;58.80;;;;;;5147763;27;19923;-48
2022/09/04 10:48:03;;;;;;;;;;;20.30;58.80;;;;;;5143677;27;19931;-45
2022/09/04 10:50:34;;;;;;;;;;;20.30;58.40;;;;;;5106428;27;19930;-45
2022/09/04 10:53:04;;;;;;;;;;;20.30;58.00;;;;;;5129250;27;20279;-44
2022/09/04 10:55:51;;;;;;;;;;;20.30;57.90;;;;;;5138605;27;19927;-45
2022/09/04 10:58:38;;;;;;;;;;;20.30;57.70;;;;;;5140310;27;19923;-44
2022/09/04 11:01:23;;;;;;;;;;;20.50;57.30;;;;;;5144521;27;19923;-52
2022/09/04 11:03:49;;;;;;;;;;;20.30;58.00;;;;;;5147145;27;19923;-43
2022/09/04 11:06:23;;;;;;;;;;;20.30;57.90;;;;;;5141909;27;19927;-47
2022/09/04 11:08:51;;;;;;;;;;;20.30;57.70;;;;;;5144551;27;19949;-53
2022/09/04 11:11:39;;;;;;;;;;;20.20;58.00;;;;;;5128045;27;19986;-44
2022/09/04 11:14:34;;;;;;;;;;;20.20;57.80;;;;;;5138494;27;19930;-46
2022/09/04 11:17:06;;;;;;;;;;;20.10;58.40;;;;;;5118584;27;20022;-43
2022/09/04 11:19:57;;;;;;;;;;;20.30;57.60;;;;;;5147014;27;20030;-45
2022/09/04 11:22:40;;;;;;;;;;;20.20;57.90;;;;;;5123017;27;19933;-44
2022/09/04 11:25:09;;;;;;;;;;;20.30;57.90;;;;;;5123295;27;19923;-45
2022/09/04 11:27:48;;;;;;;;;;;20.20;57.80;;;;;;5147203;27;20457;-47
2022/09/04 11:30:15;;;;;;;;;;;20.20;57.70;;;;;;5123142;27;19929;-44
2022/09/04 11:32:44;;;;;;;;;;;20.20;58.10;;;;;;5137322;27;19923;-49
2022/09/04 11:35:18;;;;;;;;;;;20.10;58.40;;;;;;5145849;27;19923;-46
2022/09/04 11:37:59;;;;;;;;;;;20.20;58.20;;;;;;5141357;27;20022;-45
2022/09/04 11:40:43;;;;;;;;;;;20.20;57.70;;;;;;5141453;27;20457;-43
2022/09/04 11:43:14;;;;;;;;;;;20.10;57.20;;;;;;5146832;27;19927;-45
2022/09/04 11:46:18;;;;;;;;;;;20.10;57.50;;;;;;5141421;27;20021;-44
2022/09/04 11:48:59;;;;;;;;;;;20.00;57.50;;;;;;5037115;28;19925;-46
2022/09/04 11:51:38;;;;;;;;;;;20.20;57.10;;;;;;5034454;28;19925;-50
2022/09/04 11:54:07;;;;;;;;;;;20.20;57.30;;;;;;5107077;27;19937;-44
2022/09/04 11:56:51;;;;;;;;;;;20.10;57.70;;;;;;5141137;27;20415;-44
2022/09/04 11:59:16;;;;;;;;;;;20.20;57.70;;;;;;5141208;27;19945;-44
2022/09/04 12:02:01;;;;;;;;;;;20.10;58.10;;;;;;5146565;27;20006;-46
2022/09/04 12:04:27;;;;;;;;;;;20.20;58.20;;;;;;5141133;27;19949;-45
2022/09/04 12:07:04;;;;;;;;;;;20.10;58.30;;;;;;5143694;27;19936;-50
2022/09/04 12:09:34;;;;;;;;;;;20.20;58.30;;;;;;5144311;27;19949;-45
2022/09/04 12:12:23;;;;;;;;;;;20.20;57.80;;;;;;5125025;27;19971;-47
2022/09/04 12:14:51;;;;;;;;;;;20.10;58.10;;;;;;5092493;27;19931;-47
2022/09/04 12:17:26;;;;;;;;;;;20.10;57.50;;;;;;5150084;27;19943;-44
2022/09/04 12:20:10;;;;;;;;;;;20.00;57.60;;;;;;5144646;27;19929;-46
2022/09/04 12:22:36;;;;;;;;;;;20.10;57.70;;;;;;5144178;27;20320;-45
2022/09/04 12:25:10;;;;;;;;;;;20.20;57.10;;;;;;5149678;27;19924;-44
2022/09/04 12:27:49;;;;;;;;;;;20.20;57.40;;;;;;5121583;27;19928;-50
2022/09/04 12:30:19;;;;;;;;;;;20.10;57.50;;;;;;5124886;27;19923;-44
2022/09/04 12:33:03;;;;;;;;;;;20.00;57.00;;;;;;5131375;27;19923;-45
2022/09/04 12:35:51;;;;;;;;;;;20.00;56.70;;;;;;5144332;27;20313;-45
2022/09/04 12:38:17;;;;;;;;;;;20.00;56.70;;;;;;5144185;27;20435;-47
2022/09/04 12:40:55;;;;;;;;;;;20.10;56.10;;;;;;5149742;27;19976;-45
2022/09/04 12:43:33;;;;;;;;;;;20.00;56.80;;;;;;5144101;27;19970;-45
2022/09/04 12:46:17;;;;;;;;;;;20.10;56.90;;;;;;5140408;27;20295;-46
2022/09/04 12:49:02;;;;;;;;;;;19.90;57.10;;;;;;5130166;27;20022;-49
2022/09/04 12:51:30;;;;;;;;;;;20.00;57.20;;;;;;5143797;27;19929;-45
2022/09/04 12:54:11;;;;;;;;;;;20.10;57.50;;;;;;5125248;27;19923;-47
2022/09/04 12:56:55;;;;;;;;;;;20.20;57.50;;;;;;5149462;27;19923;-46
2022/09/04 12:59:22;;;;;;;;;;;20.20;57.20;;;;;;5144009;27;20317;-49
2022/09/04 13:01:57;;;;;;;;;;;20.20;57.10;;;;;;5143944;27;19926;-47
2022/09/04 13:04:37;;;;;;;;;;;20.20;56.80;;;;;;5145160;27;19930;-45
2022/09/04 13:07:07;;;;;;;;;;;20.00;57.30;;;;;;5142770;27;20033;-46
2022/09/04 13:09:37;;;;;;;;;;;20.20;56.70;;;;;;5107965;27;20355;-46
2022/09/04 13:12:24;;;;;;;;;;;20.20;56.70;;;;;;5129399;27;20018;-45
2022/09/04 13:14:57;;;;;;;;;;;20.30;56.40;;;;;;5143584;27;20038;-45
2022/09/04 13:17:29;;;;;;;;;;;20.20;56.60;;;;;;5124989;27;19933;-44
2022/09/04 13:20:10;;;;;;;;;;;20.10;56.30;;;;;;5129473;27;19937;-45
2022/09/04 13:22:44;;;;;;;;;;;20.10;56.40;;;;;;5121434;27;20130;-46
2022/09/04 13:25:25;;;;;;;;;;;20.00;56.30;;;;;;5141877;27;19931;-46
2022/09/04 13:27:56;;;;;;;;;;;20.00;56.50;;;;;;5148745;27;19923;-45
2022/09/04 13:30:23;;;;;;;;;;;20.00;56.70;;;;;;5143520;27;19926;-45
2022/09/04 13:32:54;;;;;;;;;;;20.20;56.50;;;;;;5125329;27;19927;-44
2022/09/04 13:35:41;;;;;;;;;;;20.00;57.20;;;;;;5148922;27;19945;-44
2022/09/04 13:38:17;;;;;;;;;;;20.10;57.00;;;;;;5143387;27;20153;-48
2022/09/04 13:40:54;;;;;;;;;;;20.00;56.70;;;;;;5140153;27;19999;-44
2022/09/04 13:43:24;;;;;;;;;;;20.10;56.90;;;;;;5128453;27;20022;-45
2022/09/04 13:45:52;;;;;;;;;;;20.20;56.40;;;;;;5124780;27;19922;-45
2022/09/04 13:48:31;;;;;;;;;;;20.10;56.00;;;;;;5143423;27;19929;-44
2022/09/04 13:50:59;;;;;;;;;;;20.10;56.10;;;;;;5148855;27;20348;-45
2022/09/04 13:53:32;;;;;;;;;;;20.20;56.10;;;;;;5124456;27;19971;-44
2022/09/04 13:55:59;;;;;;;;;;;20.00;56.10;;;;;;5142925;27;19931;-46
2022/09/04 13:58:32;;;;;;;;;;;20.00;56.40;;;;;;5110697;27;19927;-50
2022/09/04 14:00:59;;;;;;;;;;;20.20;56.10;;;;;;5140270;27;20433;-46
2022/09/04 14:03:28;;;;;;;;;;;20.10;56.50;;;;;;5105709;27;19928;-48
2022/09/04 14:05:54;;;;;;;;;;;20.00;56.70;;;;;;5148442;27;20293;-46
2022/09/04 14:08:19;;;;;;;;;;;19.90;57.00;;;;;;5142862;27;19930;-44
2022/09/04 14:10:54;;;;;;;;;;;20.20;56.40;;;;;;5145090;27;20038;-54
2022/09/04 14:13:40;;;;;;;;;;;20.00;56.50;;;;;;5127745;27;19924;-44
2022/09/04 14:16:07;;;;;;;;;;;20.10;56.80;;;;;;5089554;27;20009;-45
2022/09/04 14:18:37;;;;;;;;;;;20.00;56.80;;;;;;5138829;27;20005;-55
2022/09/04 14:21:05;;;;;;;;;;;20.10;57.20;;;;;;5147419;27;19933;-45
2022/09/04 14:23:34;;;;;;;;;;;20.00;57.30;;;;;;5142213;27;20418;-44
2022/09/04 14:26:05;;;;;;;;;;;20.10;56.90;;;;;;5129518;27;19923;-45
2022/09/04 14:28:36;;;;;;;;;;;20.00;57.00;;;;;;5124307;27;19927;-46
2022/09/04 14:31:10;;;;;;;;;;;20.10;56.80;;;;;;5123078;27;19938;-46
2022/09/04 14:33:49;;;;;;;;;;;20.10;56.80;;;;;;5129305;27;19933;-46
2022/09/04 14:36:20;;;;;;;;;;;20.10;56.50;;;;;;5138360;27;20417;-51
2022/09/04 14:39:05;;;;;;;;;;;20.10;56.50;;;;;;5140934;27;19927;-45
2022/09/04 14:41:33;;;;;;;;;;;20.10;56.60;;;;;;5147692;27;19927;-43
2022/09/04 14:44:23;;;;;;;;;;;20.10;56.60;;;;;;5142151;27;20374;-43
2022/09/04 14:47:02;;;;;;;;;;;20.00;56.80;;;;;;5094929;27;19933;-44
2022/09/04 14:49:30;;;;;;;;;;;20.10;56.60;;;;;;5144872;27;19927;-54
2022/09/04 14:51:58;;;;;;;;;;;20.00;57.00;;;;;;5146685;27;20371;-47
2022/09/04 14:54:24;;;;;;;;;;;20.10;56.80;;;;;;5120335;27;19927;-47
2022/09/04 14:56:51;;;;;;;;;;;20.10;56.90;;;;;;5145412;27;20017;-46
2022/09/04 14:59:28;;;;;;;;;;;20.00;57.50;;;;;;5123367;27;20386;-45
2022/09/04 15:01:59;;;;;;;;;;;20.10;57.10;;;;;;5123549;27;19927;-44
2022/09/04 15:04:26;;;;;;;;;;;20.20;56.60;;;;;;5147504;27;20018;-44
2022/09/04 15:06:56;;;;;;;;;;;20.00;56.50;;;;;;5123031;27;19923;-44
2022/09/04 15:09:27;;;;;;;;;;;20.10;56.10;;;;;;5142537;27;19923;-44